sensor_id;sensor_type;location;lat;lon;timestamp;pressure;altitude;pressure_sealevel;temperature;humidity
78014;BME280;67222;50.182;8.734;2023-08-07T04:32:58;100151.88;;;12.72;83.77
78014;BME280;67222;50.182;8.734;2023-08-07T04:35:23;100160.03;;;12.78;83.22
78014;BME280;67222;50.182;8.734;2023-08-07T04:37:49;100157.81;;;12.74;83.01
78014;BME280;67222;50.182;8.734;2023-08-07T04:40:14;100158.41;;;12.77;83.21
78014;BME280;67222;50.182;8.734;2023-08-07T04:42:39;100164.34;;;12.79;83.09
78014;BME280;67222;50.182;8.734;2023-08-07T04:45:05;100164.94;;;12.81;82.75
78014;BME280;67222;50.182;8.734;2023-08-07T04:47:30;100167.47;;;12.76;82.74
78014;BME280;67222;50.182;8.734;2023-08-07T04:49:55;100162.28;;;12.81;82.66
78014;BME280;67222;50.182;8.734;2023-08-07T04:52:21;100166.97;;;12.85;82.19
78014;BME280;67222;50.182;8.734;2023-08-07T04:54:46;100165.69;;;12.88;82.10
78014;BME280;67222;50.182;8.734;2023-08-07T04:57:11;100171.88;;;12.88;81.32
78014;BME280;67222;50.182;8.734;2023-08-07T04:59:37;100174.25;;;12.78;82.78
78014;BME280;67222;50.182;8.734;2023-08-07T05:02:02;100168.59;;;12.86;81.97
78014;BME280;67222;50.182;8.734;2023-08-07T05:04:27;100167.78;;;12.86;82.07
78014;BME280;67222;50.182;8.734;2023-08-07T05:06:52;100178.84;;;12.89;80.51
78014;BME280;67222;50.182;8.734;2023-08-07T05:09:18;100184.94;;;12.96;81.70
78014;BME280;67222;50.182;8.734;2023-08-07T05:11:43;100187.97;;;13.00;81.61
78014;BME280;67222;50.182;8.734;2023-08-07T05:14:08;100192.38;;;12.94;80.13
78014;BME280;67222;50.182;8.734;2023-08-07T05:16:34;100184.88;;;13.03;81.14
78014;BME280;67222;50.182;8.734;2023-08-07T05:18:59;100179.44;;;12.91;82.18
78014;BME280;67222;50.182;8.734;2023-08-07T05:21:24;100188.75;;;12.89;82.23
78014;BME280;67222;50.182;8.734;2023-08-07T05:23:49;100182.41;;;13.01;80.86
78014;BME280;67222;50.182;8.734;2023-08-07T05:26:18;100186.50;;;13.04;80.77
78014;BME280;67222;50.182;8.734;2023-08-07T05:28:43;100184.44;;;12.88;82.06
78014;BME280;67222;50.182;8.734;2023-08-07T05:31:09;100196.00;;;13.00;82.72
78014;BME280;67222;50.182;8.734;2023-08-07T05:33:34;100198.25;;;13.03;81.44
78014;BME280;67222;50.182;8.734;2023-08-07T05:35:59;100205.38;;;13.09;81.34
78014;BME280;67222;50.182;8.734;2023-08-07T05:38:25;100208.72;;;13.04;80.57
78014;BME280;67222;50.182;8.734;2023-08-07T05:40:50;100207.91;;;13.04;81.97
78014;BME280;67222;50.182;8.734;2023-08-07T05:43:16;100206.19;;;13.10;81.58
78014;BME280;67222;50.182;8.734;2023-08-07T05:45:42;100205.72;;;13.13;80.57
78014;BME280;67222;50.182;8.734;2023-08-07T05:48:09;100200.16;;;13.14;81.47
78014;BME280;67222;50.182;8.734;2023-08-07T05:50:35;100206.91;;;13.17;81.01
78014;BME280;67222;50.182;8.734;2023-08-07T05:53:00;100206.31;;;13.15;80.27
78014;BME280;67222;50.182;8.734;2023-08-07T05:55:25;100204.25;;;12.98;81.09
78014;BME280;67222;50.182;8.734;2023-08-07T05:57:50;100209.09;;;13.08;81.15
78014;BME280;67222;50.182;8.734;2023-08-07T06:00:16;100212.25;;;13.17;80.48
78014;BME280;67222;50.182;8.734;2023-08-07T06:02:43;100212.50;;;13.15;81.18
78014;BME280;67222;50.182;8.734;2023-08-07T06:05:08;100211.91;;;13.13;79.73
78014;BME280;67222;50.182;8.734;2023-08-07T06:07:34;100215.25;;;13.27;80.53
78014;BME280;67222;50.182;8.734;2023-08-07T06:10:00;100219.81;;;13.26;80.07
78014;BME280;67222;50.182;8.734;2023-08-07T06:12:25;100219.88;;;13.20;82.35
78014;BME280;67222;50.182;8.734;2023-08-07T06:14:50;100211.66;;;13.15;81.56
78014;BME280;67222;50.182;8.734;2023-08-07T06:17:15;100220.91;;;13.19;81.40
78014;BME280;67222;50.182;8.734;2023-08-07T06:19:41;100215.75;;;13.17;81.18
78014;BME280;67222;50.182;8.734;2023-08-07T06:22:06;100220.63;;;13.09;81.60
78014;BME280;67222;50.182;8.734;2023-08-07T06:24:31;100233.19;;;13.08;82.28
78014;BME280;67222;50.182;8.734;2023-08-07T06:26:57;100233.47;;;13.00;82.95
78014;BME280;67222;50.182;8.734;2023-08-07T06:29:22;100220.09;;;13.00;82.14
78014;BME280;67222;50.182;8.734;2023-08-07T06:31:47;100228.56;;;12.97;83.72
78014;BME280;67222;50.182;8.734;2023-08-07T06:34:12;100230.19;;;12.98;83.52
78014;BME280;67222;50.182;8.734;2023-08-07T06:36:38;100224.72;;;12.93;84.00
78014;BME280;67222;50.182;8.734;2023-08-07T06:39:03;100234.00;;;12.90;83.96
78014;BME280;67222;50.182;8.734;2023-08-07T06:41:29;100236.81;;;12.95;84.39
78014;BME280;67222;50.182;8.734;2023-08-07T06:43:54;100241.22;;;12.90;84.27
78014;BME280;67222;50.182;8.734;2023-08-07T06:46:19;100243.91;;;12.90;83.83
78014;BME280;67222;50.182;8.734;2023-08-07T06:48:49;100252.28;;;12.93;83.14
78014;BME280;67222;50.182;8.734;2023-08-07T06:51:14;100251.25;;;12.94;82.31
78014;BME280;67222;50.182;8.734;2023-08-07T06:53:41;100252.22;;;13.00;84.43
78014;BME280;67222;50.182;8.734;2023-08-07T06:56:07;100257.94;;;13.03;83.25
78014;BME280;67222;50.182;8.734;2023-08-07T06:58:32;100256.47;;;13.08;83.50
78014;BME280;67222;50.182;8.734;2023-08-07T07:00:57;100261.88;;;13.01;83.25
78014;BME280;67222;50.182;8.734;2023-08-07T07:03:23;100275.13;;;12.96;84.39
78014;BME280;67222;50.182;8.734;2023-08-07T07:05:49;100277.34;;;12.99;83.14
78014;BME280;67222;50.182;8.734;2023-08-07T07:08:15;100281.38;;;13.08;82.91
78014;BME280;67222;50.182;8.734;2023-08-07T07:10:40;100277.72;;;13.02;83.66
78014;BME280;67222;50.182;8.734;2023-08-07T07:13:05;100293.16;;;13.00;83.76
78014;BME280;67222;50.182;8.734;2023-08-07T07:15:33;100288.44;;;13.02;83.85
78014;BME280;67222;50.182;8.734;2023-08-07T07:17:58;100308.00;;;13.03;83.57
78014;BME280;67222;50.182;8.734;2023-08-07T07:20:24;100301.00;;;13.02;84.09
78014;BME280;67222;50.182;8.734;2023-08-07T07:22:50;100300.19;;;13.01;82.82
78014;BME280;67222;50.182;8.734;2023-08-07T07:25:15;100299.34;;;13.01;83.07
78014;BME280;67222;50.182;8.734;2023-08-07T07:27:40;100303.25;;;13.05;82.43
78014;BME280;67222;50.182;8.734;2023-08-07T07:30:06;100299.75;;;13.04;82.07
78014;BME280;67222;50.182;8.734;2023-08-07T07:32:32;100314.00;;;13.17;81.69
78014;BME280;67222;50.182;8.734;2023-08-07T07:34:57;100315.84;;;13.16;82.17
78014;BME280;67222;50.182;8.734;2023-08-07T07:37:23;100316.47;;;13.18;81.53
78014;BME280;67222;50.182;8.734;2023-08-07T07:39:48;100320.16;;;13.17;82.27
78014;BME280;67222;50.182;8.734;2023-08-07T07:42:13;100327.84;;;13.14;81.68
78014;BME280;67222;50.182;8.734;2023-08-07T07:44:39;100325.25;;;13.07;81.12
78014;BME280;67222;50.182;8.734;2023-08-07T07:47:05;100332.47;;;13.07;82.72
78014;BME280;67222;50.182;8.734;2023-08-07T07:49:32;100332.22;;;13.08;81.33
78014;BME280;67222;50.182;8.734;2023-08-07T07:51:58;100340.41;;;13.13;82.00
78014;BME280;67222;50.182;8.734;2023-08-07T07:54:23;100340.84;;;13.10;80.68
78014;BME280;67222;50.182;8.734;2023-08-07T07:56:49;100342.84;;;13.15;81.44
78014;BME280;67222;50.182;8.734;2023-08-07T07:59:14;100342.84;;;13.15;81.99
78014;BME280;67222;50.182;8.734;2023-08-07T08:01:39;100342.22;;;13.19;80.31
78014;BME280;67222;50.182;8.734;2023-08-07T08:04:05;100343.56;;;13.28;81.01
78014;BME280;67222;50.182;8.734;2023-08-07T08:06:31;100349.75;;;13.29;80.22
78014;BME280;67222;50.182;8.734;2023-08-07T08:08:57;100351.84;;;13.27;80.65
78014;BME280;67222;50.182;8.734;2023-08-07T08:11:22;100344.97;;;13.31;80.74
78014;BME280;67222;50.182;8.734;2023-08-07T08:13:47;100365.00;;;13.28;80.19
78014;BME280;67222;50.182;8.734;2023-08-07T08:16:13;100357.69;;;13.36;79.69
78014;BME280;67222;50.182;8.734;2023-08-07T08:18:38;100362.59;;;13.39;79.12
78014;BME280;67222;50.182;8.734;2023-08-07T08:21:04;100361.63;;;13.33;79.45
78014;BME280;67222;50.182;8.734;2023-08-07T08:23:29;100361.63;;;13.33;78.52
78014;BME280;67222;50.182;8.734;2023-08-07T08:25:54;100361.63;;;13.33;80.07
78014;BME280;67222;50.182;8.734;2023-08-07T08:28:20;100375.41;;;13.37;79.50
78014;BME280;67222;50.182;8.734;2023-08-07T08:30:45;100359.31;;;13.37;79.26
78014;BME280;67222;50.182;8.734;2023-08-07T08:33:11;100366.72;;;13.41;79.75
78014;BME280;67222;50.182;8.734;2023-08-07T08:35:39;100358.09;;;13.39;78.81
78014;BME280;67222;50.182;8.734;2023-08-07T08:38:05;100370.13;;;13.48;78.92
78014;BME280;67222;50.182;8.734;2023-08-07T08:40:31;100359.50;;;13.60;79.09
78014;BME280;67222;50.182;8.734;2023-08-07T08:43:00;100367.53;;;13.60;78.29
78014;BME280;67222;50.182;8.734;2023-08-07T08:45:26;100365.22;;;13.63;77.38
78014;BME280;67222;50.182;8.734;2023-08-07T08:47:54;100364.75;;;13.67;78.08
78014;BME280;67222;50.182;8.734;2023-08-07T08:50:20;100378.66;;;13.57;77.85
78014;BME280;67222;50.182;8.734;2023-08-07T08:52:46;100374.81;;;13.53;78.84
78014;BME280;67222;50.182;8.734;2023-08-07T08:55:12;100373.69;;;13.60;78.60
78014;BME280;67222;50.182;8.734;2023-08-07T08:57:38;100378.38;;;13.65;78.32
78014;BME280;67222;50.182;8.734;2023-08-07T09:00:08;100387.81;;;13.68;79.25
78014;BME280;67222;50.182;8.734;2023-08-07T09:02:46;100376.28;;;13.67;79.16
78014;BME280;67222;50.182;8.734;2023-08-07T09:05:12;100391.31;;;13.68;77.88
78014;BME280;67222;50.182;8.734;2023-08-07T09:07:38;100392.59;;;13.66;77.90
78014;BME280;67222;50.182;8.734;2023-08-07T09:10:04;100382.34;;;13.62;79.67
78014;BME280;67222;50.182;8.734;2023-08-07T09:12:32;100397.50;;;13.69;79.24
78014;BME280;67222;50.182;8.734;2023-08-07T09:15:02;100387.81;;;13.68;79.27
78014;BME280;67222;50.182;8.734;2023-08-07T09:17:28;100389.53;;;13.80;79.64
78014;BME280;67222;50.182;8.734;2023-08-07T09:19:54;100385.97;;;13.68;79.40
78014;BME280;67222;50.182;8.734;2023-08-07T09:22:19;100392.50;;;13.72;80.37
78014;BME280;67222;50.182;8.734;2023-08-07T09:24:45;100394.31;;;13.78;80.73
78014;BME280;67222;50.182;8.734;2023-08-07T09:27:11;100392.72;;;13.71;80.05
78014;BME280;67222;50.182;8.734;2023-08-07T09:29:36;100406.06;;;13.77;80.89
78014;BME280;67222;50.182;8.734;2023-08-07T09:32:22;100408.13;;;13.75;80.15
78014;BME280;67222;50.182;8.734;2023-08-07T09:34:49;100411.72;;;13.69;80.31
78014;BME280;67222;50.182;8.734;2023-08-07T09:37:15;100416.03;;;13.70;80.06
78014;BME280;67222;50.182;8.734;2023-08-07T09:39:41;100426.75;;;13.70;80.88
78014;BME280;67222;50.182;8.734;2023-08-07T09:42:13;100407.16;;;13.70;79.83
78014;BME280;67222;50.182;8.734;2023-08-07T09:44:39;100414.41;;;13.69;79.90
78014;BME280;67222;50.182;8.734;2023-08-07T09:47:15;100427.19;;;13.67;80.22
78014;BME280;67222;50.182;8.734;2023-08-07T09:49:41;100418.94;;;13.69;80.81
78014;BME280;67222;50.182;8.734;2023-08-07T09:52:08;100420.56;;;13.70;80.44
78014;BME280;67222;50.182;8.734;2023-08-07T09:54:34;100435.84;;;13.69;81.15
78014;BME280;67222;50.182;8.734;2023-08-07T09:57:01;100427.78;;;13.69;80.79
78014;BME280;67222;50.182;8.734;2023-08-07T09:59:27;100432.34;;;13.69;81.04
78014;BME280;67222;50.182;8.734;2023-08-07T10:01:53;100433.47;;;13.79;81.12
78014;BME280;67222;50.182;8.734;2023-08-07T10:04:20;100431.50;;;13.86;80.11
78014;BME280;67222;50.182;8.734;2023-08-07T10:06:46;100432.69;;;13.90;79.08
78014;BME280;67222;50.182;8.734;2023-08-07T10:09:11;100430.47;;;13.87;79.40
78014;BME280;67222;50.182;8.734;2023-08-07T10:11:38;100444.00;;;13.74;80.16
78014;BME280;67222;50.182;8.734;2023-08-07T10:14:05;100454.66;;;13.81;81.00
78014;BME280;67222;50.182;8.734;2023-08-07T10:16:30;100452.34;;;13.84;81.17
78014;BME280;67222;50.182;8.734;2023-08-07T10:18:55;100457.84;;;13.89;81.14
78014;BME280;67222;50.182;8.734;2023-08-07T10:21:22;100453.91;;;13.92;80.89
78014;BME280;67222;50.182;8.734;2023-08-07T10:23:49;100455.94;;;13.78;80.28
78014;BME280;67222;50.182;8.734;2023-08-07T10:26:18;100459.59;;;13.84;81.58
78014;BME280;67222;50.182;8.734;2023-08-07T10:28:43;100461.66;;;13.82;81.80
78014;BME280;67222;50.182;8.734;2023-08-07T10:31:10;100459.59;;;13.84;81.87
78014;BME280;67222;50.182;8.734;2023-08-07T10:33:38;100474.94;;;13.77;81.80
78014;BME280;67222;50.182;8.734;2023-08-07T10:36:11;100474.72;;;13.78;81.16
78014;BME280;67222;50.182;8.734;2023-08-07T10:38:36;100481.16;;;13.71;81.94
78014;BME280;67222;50.182;8.734;2023-08-07T10:41:12;100477.53;;;13.65;81.02
78014;BME280;67222;50.182;8.734;2023-08-07T10:43:45;100481.03;;;13.66;81.03
78014;BME280;67222;50.182;8.734;2023-08-07T10:46:19;100485.25;;;13.73;81.89
78014;BME280;67222;50.182;8.734;2023-08-07T10:48:47;100483.78;;;13.59;82.26
78014;BME280;67222;50.182;8.734;2023-08-07T10:51:13;100496.50;;;13.63;83.36
78014;BME280;67222;50.182;8.734;2023-08-07T10:53:41;100490.84;;;13.72;81.64
78014;BME280;67222;50.182;8.734;2023-08-07T10:56:10;100490.78;;;13.78;81.85
78014;BME280;67222;50.182;8.734;2023-08-07T10:58:37;100501.06;;;13.81;81.38
78014;BME280;67222;50.182;8.734;2023-08-07T11:01:16;100507.91;;;13.77;79.95
78014;BME280;67222;50.182;8.734;2023-08-07T11:03:43;100501.34;;;13.73;80.73
78014;BME280;67222;50.182;8.734;2023-08-07T11:06:10;100496.16;;;13.78;81.72
78014;BME280;67222;50.182;8.734;2023-08-07T11:08:36;100508.72;;;13.78;81.65
78014;BME280;67222;50.182;8.734;2023-08-07T11:11:05;100510.78;;;13.76;81.35
78014;BME280;67222;50.182;8.734;2023-08-07T11:13:32;100510.38;;;13.79;82.11
78014;BME280;67222;50.182;8.734;2023-08-07T11:15:57;100509.97;;;13.75;81.22
78014;BME280;67222;50.182;8.734;2023-08-07T11:18:24;100503.06;;;13.68;81.47
78014;BME280;67222;50.182;8.734;2023-08-07T11:20:50;100510.03;;;13.69;81.41
78014;BME280;67222;50.182;8.734;2023-08-07T11:23:15;100509.91;;;13.82;81.12
78014;BME280;67222;50.182;8.734;2023-08-07T11:25:41;100507.38;;;13.87;81.44
78014;BME280;67222;50.182;8.734;2023-08-07T11:28:06;100508.19;;;13.87;80.57
78014;BME280;67222;50.182;8.734;2023-08-07T11:30:34;100509.84;;;13.88;80.92
78014;BME280;67222;50.182;8.734;2023-08-07T11:33:00;100519.00;;;13.99;80.42
78014;BME280;67222;50.182;8.734;2023-08-07T11:35:26;100512.75;;;14.05;79.31
78014;BME280;67222;50.182;8.734;2023-08-07T11:37:51;100515.78;;;14.09;80.00
78014;BME280;67222;50.182;8.734;2023-08-07T11:40:19;100519.00;;;13.99;78.88
78014;BME280;67222;50.182;8.734;2023-08-07T11:42:44;100511.31;;;14.03;80.11
78014;BME280;67222;50.182;8.734;2023-08-07T11:45:10;100517.41;;;14.10;80.13
78014;BME280;67222;50.182;8.734;2023-08-07T11:47:35;100506.03;;;14.14;79.32
78014;BME280;67222;50.182;8.734;2023-08-07T11:50:01;100518.09;;;14.23;79.24
78014;BME280;67222;50.182;8.734;2023-08-07T11:54:56;100525.00;;;14.31;78.90
78014;BME280;67222;50.182;8.734;2023-08-07T11:57:21;100520.91;;;14.29;78.12
78014;BME280;67222;50.182;8.734;2023-08-07T11:59:48;100530.34;;;14.31;77.33
78014;BME280;67222;50.182;8.734;2023-08-07T12:02:13;100529.47;;;14.37;77.63
78014;BME280;67222;50.182;8.734;2023-08-07T12:04:39;100535.66;;;14.38;79.31
78014;BME280;67222;50.182;8.734;2023-08-07T12:07:05;100536.72;;;14.37;77.01
78014;BME280;67222;50.182;8.734;2023-08-07T12:09:30;100531.63;;;14.47;77.30
78014;BME280;67222;50.182;8.734;2023-08-07T12:11:59;100540.44;;;14.54;77.44
78014;BME280;67222;50.182;8.734;2023-08-07T12:14:29;100535.09;;;14.66;75.98
78014;BME280;67222;50.182;8.734;2023-08-07T12:16:54;100529.91;;;14.82;74.96
78014;BME280;67222;50.182;8.734;2023-08-07T12:19:19;100545.19;;;14.82;75.53
78014;BME280;67222;50.182;8.734;2023-08-07T12:21:45;100527.72;;;14.91;76.40
78014;BME280;67222;50.182;8.734;2023-08-07T12:24:12;100526.69;;;15.04;74.79
78014;BME280;67222;50.182;8.734;2023-08-07T12:26:38;100530.13;;;15.11;74.30
78014;BME280;67222;50.182;8.734;2023-08-07T12:29:03;100534.09;;;15.20;73.90
78014;BME280;67222;50.182;8.734;2023-08-07T12:31:29;100538.78;;;15.25;73.70
78014;BME280;67222;50.182;8.734;2023-08-07T12:33:54;100539.81;;;15.24;74.62
78014;BME280;67222;50.182;8.734;2023-08-07T12:36:19;100536.81;;;15.55;72.57
78014;BME280;67222;50.182;8.734;2023-08-07T12:38:44;100539.66;;;15.84;70.51
78014;BME280;67222;50.182;8.734;2023-08-07T12:41:10;100526.56;;;16.27;68.34
78014;BME280;67222;50.182;8.734;2023-08-07T12:43:36;100526.22;;;17.09;70.20
78014;BME280;67222;50.182;8.734;2023-08-07T12:46:01;100510.69;;;18.54;65.95
78014;BME280;67222;50.182;8.734;2023-08-07T12:48:26;100520.41;;;19.04;63.53
78014;BME280;67222;50.182;8.734;2023-08-07T12:50:53;100507.44;;;19.80;59.95
78014;BME280;67222;50.182;8.734;2023-08-07T12:53:19;100517.97;;;20.34;60.68
78014;BME280;67222;50.182;8.734;2023-08-07T12:55:44;100506.47;;;21.30;54.98
78014;BME280;67222;50.182;8.734;2023-08-07T12:58:10;100512.59;;;21.87;49.28
78014;BME280;67222;50.182;8.734;2023-08-07T13:00:35;100516.91;;;22.13;52.36
78014;BME280;67222;50.182;8.734;2023-08-07T13:03:01;100510.84;;;22.76;47.15
78014;BME280;67222;50.182;8.734;2023-08-07T13:05:28;100531.53;;;22.72;47.06
78014;BME280;67222;50.182;8.734;2023-08-07T13:07:53;100520.47;;;22.58;45.56
78014;BME280;67222;50.182;8.734;2023-08-07T13:10:21;100515.34;;;22.95;47.36
78014;BME280;67222;50.182;8.734;2023-08-07T13:12:48;100518.47;;;22.74;46.93
78014;BME280;67222;50.182;8.734;2023-08-07T13:15:14;100529.50;;;21.58;48.39
78014;BME280;67222;50.182;8.734;2023-08-07T13:17:41;100526.00;;;20.09;51.54
78014;BME280;67222;50.182;8.734;2023-08-07T13:20:08;100532.56;;;19.39;55.61
78014;BME280;67222;50.182;8.734;2023-08-07T13:22:37;100527.16;;;19.39;54.71
78014;BME280;67222;50.182;8.734;2023-08-07T13:25:03;100528.44;;;19.63;55.74
78014;BME280;67222;50.182;8.734;2023-08-07T13:27:30;100535.44;;;19.54;55.02
78014;BME280;67222;50.182;8.734;2023-08-07T13:29:55;100520.94;;;19.38;54.52
78014;BME280;67222;50.182;8.734;2023-08-07T13:32:20;100532.50;;;20.13;53.56
78014;BME280;67222;50.182;8.734;2023-08-07T13:34:46;100520.91;;;22.26;51.27
78014;BME280;67222;50.182;8.734;2023-08-07T13:37:12;100509.44;;;22.83;48.92
78014;BME280;67222;50.182;8.734;2023-08-07T13:39:38;100518.88;;;23.30;45.94
78014;BME280;67222;50.182;8.734;2023-08-07T13:42:03;100512.38;;;23.26;47.27
78014;BME280;67222;50.182;8.734;2023-08-07T13:44:28;100513.25;;;22.82;46.24
78014;BME280;67222;50.182;8.734;2023-08-07T13:46:54;100517.44;;;23.38;45.64
78014;BME280;67222;50.182;8.734;2023-08-07T13:49:21;100515.56;;;23.33;47.08
78014;BME280;67222;50.182;8.734;2023-08-07T13:51:49;100493.66;;;23.48;44.74
78014;BME280;67222;50.182;8.734;2023-08-07T13:54:14;100516.56;;;23.13;44.79
78014;BME280;67222;50.182;8.734;2023-08-07T13:56:39;100503.13;;;22.93;43.19
78014;BME280;67222;50.182;8.734;2023-08-07T13:59:05;100506.72;;;22.83;43.64
78014;BME280;67222;50.182;8.734;2023-08-07T14:01:30;100508.16;;;22.65;46.47
78014;BME280;67222;50.182;8.734;2023-08-07T14:03:58;100503.16;;;22.44;46.18
78014;BME280;67222;50.182;8.734;2023-08-07T14:06:23;100500.47;;;22.39;47.10
78014;BME280;67222;50.182;8.734;2023-08-07T14:08:48;100502.88;;;22.45;47.15
78014;BME280;67222;50.182;8.734;2023-08-07T14:11:14;100502.63;;;22.42;46.14
78014;BME280;67222;50.182;8.734;2023-08-07T14:13:41;100498.91;;;22.72;47.27
78014;BME280;67222;50.182;8.734;2023-08-07T14:16:06;100500.63;;;22.57;45.98
78014;BME280;67222;50.182;8.734;2023-08-07T14:18:32;100496.94;;;22.82;46.35
78014;BME280;67222;50.182;8.734;2023-08-07T14:20:58;100496.84;;;22.48;45.81
78014;BME280;67222;50.182;8.734;2023-08-07T14:23:23;100514.13;;;22.23;47.49
78014;BME280;67222;50.182;8.734;2023-08-07T14:25:48;100514.34;;;23.49;47.13
78014;BME280;67222;50.182;8.734;2023-08-07T14:28:16;100511.19;;;23.37;46.39
78014;BME280;67222;50.182;8.734;2023-08-07T14:30:41;100509.16;;;22.85;45.29
78014;BME280;67222;50.182;8.734;2023-08-07T14:33:07;100513.09;;;23.03;46.28
78014;BME280;67222;50.182;8.734;2023-08-07T14:35:32;100504.53;;;22.85;44.97
78014;BME280;67222;50.182;8.734;2023-08-07T14:37:57;100514.69;;;22.64;44.59
78014;BME280;67222;50.182;8.734;2023-08-07T14:40:24;100513.25;;;22.38;43.55
78014;BME280;67222;50.182;8.734;2023-08-07T14:42:49;100525.03;;;22.08;46.61
78014;BME280;67222;50.182;8.734;2023-08-07T14:45:14;100526.97;;;21.92;48.29
78014;BME280;67222;50.182;8.734;2023-08-07T14:47:40;100524.59;;;21.75;48.42
78014;BME280;67222;50.182;8.734;2023-08-07T14:50:06;100524.59;;;21.70;48.81
78014;BME280;67222;50.182;8.734;2023-08-07T14:52:31;100526.50;;;21.65;47.50
78014;BME280;67222;50.182;8.734;2023-08-07T14:54:57;100528.44;;;21.29;50.72
78014;BME280;67222;50.182;8.734;2023-08-07T14:57:23;100522.47;;;21.06;50.57
78014;BME280;67222;50.182;8.734;2023-08-07T14:59:49;100524.31;;;20.75;52.38
78014;BME280;67222;50.182;8.734;2023-08-07T15:02:14;100524.44;;;20.28;51.68
78014;BME280;67222;50.182;8.734;2023-08-07T15:04:39;100523.28;;;20.14;52.90
78014;BME280;67222;50.182;8.734;2023-08-07T15:07:05;100513.88;;;20.32;50.96
78014;BME280;67222;50.182;8.734;2023-08-07T15:09:30;100517.19;;;20.44;51.72
78014;BME280;67222;50.182;8.734;2023-08-07T15:11:56;100509.84;;;20.39;51.67
78014;BME280;67222;50.182;8.734;2023-08-07T15:14:21;100515.59;;;20.63;49.72
78014;BME280;67222;50.182;8.734;2023-08-07T15:16:46;100518.31;;;20.58;50.33
78014;BME280;67222;50.182;8.734;2023-08-07T15:19:11;100521.34;;;20.77;48.99
78014;BME280;67222;50.182;8.734;2023-08-07T15:21:37;100513.22;;;20.87;51.98
78014;BME280;67222;50.182;8.734;2023-08-07T15:24:02;100516.19;;;21.01;50.25
78014;BME280;67222;50.182;8.734;2023-08-07T15:26:28;100509.97;;;21.10;51.21
78014;BME280;67222;50.182;8.734;2023-08-07T15:28:53;100517.59;;;21.03;48.81
78014;BME280;67222;50.182;8.734;2023-08-07T15:31:18;100514.84;;;20.93;50.12
78014;BME280;67222;50.182;8.734;2023-08-07T15:33:43;100520.78;;;20.80;49.52
78014;BME280;67222;50.182;8.734;2023-08-07T15:36:14;100524.59;;;20.69;49.80
78014;BME280;67222;50.182;8.734;2023-08-07T15:38:39;100528.59;;;20.56;50.31
78014;BME280;67222;50.182;8.734;2023-08-07T15:41:04;100529.88;;;20.38;48.46
78014;BME280;67222;50.182;8.734;2023-08-07T15:43:30;100538.72;;;20.08;47.78
78014;BME280;67222;50.182;8.734;2023-08-07T15:45:55;100532.88;;;19.84;47.69
78014;BME280;67222;50.182;8.734;2023-08-07T15:48:21;100533.31;;;19.66;52.86
78014;BME280;67222;50.182;8.734;2023-08-07T15:50:47;100536.56;;;19.63;53.66
78014;BME280;67222;50.182;8.734;2023-08-07T15:53:12;100542.38;;;19.50;52.39
78014;BME280;67222;50.182;8.734;2023-08-07T15:55:37;100541.53;;;19.44;53.09
78014;BME280;67222;50.182;8.734;2023-08-07T15:58:04;100533.03;;;19.30;51.36
78014;BME280;67222;50.182;8.734;2023-08-07T16:00:30;100536.28;;;19.32;50.79
78014;BME280;67222;50.182;8.734;2023-08-07T16:02:59;100539.44;;;19.19;53.26
78014;BME280;67222;50.182;8.734;2023-08-07T16:05:24;100534.47;;;19.38;55.51
78014;BME280;67222;50.182;8.734;2023-08-07T16:07:49;100532.06;;;19.47;54.29
78014;BME280;67222;50.182;8.734;2023-08-07T16:10:16;100532.72;;;19.54;51.13
78014;BME280;67222;50.182;8.734;2023-08-07T16:12:41;100525.88;;;19.51;52.35
78014;BME280;67222;50.182;8.734;2023-08-07T16:15:07;100527.34;;;19.59;54.25
78014;BME280;67222;50.182;8.734;2023-08-07T16:17:32;100526.53;;;19.63;53.21
78014;BME280;67222;50.182;8.734;2023-08-07T16:19:58;100533.81;;;19.58;53.19
78014;BME280;67222;50.182;8.734;2023-08-07T16:22:23;100525.06;;;19.51;52.65
78014;BME280;67222;50.182;8.734;2023-08-07T16:24:48;100531.25;;;19.46;50.20
78014;BME280;67222;50.182;8.734;2023-08-07T16:27:14;100532.06;;;19.42;52.16
78014;BME280;67222;50.182;8.734;2023-08-07T16:29:39;100529.22;;;19.26;54.99
78014;BME280;67222;50.182;8.734;2023-08-07T16:32:04;100521.50;;;19.08;55.10
78014;BME280;67222;50.182;8.734;2023-08-07T16:34:32;100531.22;;;19.04;54.02
78014;BME280;67222;50.182;8.734;2023-08-07T16:36:57;100526.56;;;18.99;55.63
78014;BME280;67222;50.182;8.734;2023-08-07T16:39:22;100537.25;;;18.84;55.32
78014;BME280;67222;50.182;8.734;2023-08-07T16:41:48;100529.28;;;18.72;53.15
78014;BME280;67222;50.182;8.734;2023-08-07T16:44:13;100538.00;;;18.80;53.46
78014;BME280;67222;50.182;8.734;2023-08-07T16:46:39;100537.38;;;18.72;52.68
78014;BME280;67222;50.182;8.734;2023-08-07T16:49:04;100541.09;;;18.66;58.59
78014;BME280;67222;50.182;8.734;2023-08-07T16:51:29;100546.25;;;18.46;54.95
78014;BME280;67222;50.182;8.734;2023-08-07T16:53:58;100558.56;;;18.37;57.41
78014;BME280;67222;50.182;8.734;2023-08-07T16:56:23;100560.84;;;18.23;57.52
78014;BME280;67222;50.182;8.734;2023-08-07T16:58:48;100551.47;;;18.09;58.33
78014;BME280;67222;50.182;8.734;2023-08-07T17:01:15;100552.44;;;18.03;59.69
78014;BME280;67222;50.182;8.734;2023-08-07T17:03:41;100548.88;;;17.97;61.15
78014;BME280;67222;50.182;8.734;2023-08-07T17:06:06;100547.66;;;18.05;62.73
78014;BME280;67222;50.182;8.734;2023-08-07T17:08:31;100556.16;;;17.97;58.43
78014;BME280;67222;50.182;8.734;2023-08-07T17:10:57;100563.94;;;17.93;59.46
78014;BME280;67222;50.182;8.734;2023-08-07T17:13:22;100566.44;;;18.00;58.77
78014;BME280;67222;50.182;8.734;2023-08-07T17:15:49;100564.06;;;18.03;56.44
78014;BME280;67222;50.182;8.734;2023-08-07T17:18:15;100567.47;;;18.15;58.21